sensor_id;sensor_type;location;lat;lon;timestamp;P1;durP1;ratioP1;P2;durP2;ratioP2
47812;SDS011;34221;45.296;9.516;2022-09-12T00:00:11;21.20;;;13.70;;
47812;SDS011;34221;45.296;9.516;2022-09-12T00:00:27;18.63;;;13.85;;
47812;SDS011;34221;45.296;9.516;2022-09-12T00:00:42;20.27;;;13.57;;
47812;SDS011;34221;45.296;9.516;2022-09-12T00:02:10;20.38;;;14.00;;
47812;SDS011;34221;45.296;9.516;2022-09-12T00:02:25;20.33;;;14.18;;
47812;SDS011;34221;45.296;9.516;2022-09-12T00:02:40;17.33;;;14.07;;
47812;SDS011;34221;45.296;9.516;2022-09-12T00:02:55;16.45;;;13.93;;
47812;SDS011;34221;45.296;9.516;2022-09-12T00:03:11;18.57;;;13.83;;
47812;SDS011;34221;45.296;9.516;2022-09-12T00:03:26;18.40;;;13.82;;
47812;SDS011;34221;45.296;9.516;2022-09-12T00:03:41;18.38;;;13.98;;
47812;SDS011;34221;45.296;9.516;2022-09-12T00:03:57;20.80;;;14.38;;
47812;SDS011;34221;45.296;9.516;2022-09-12T00:04:15;18.13;;;13.98;;
47812;SDS011;34221;45.296;9.516;2022-09-12T00:04:29;18.10;;;14.13;;
47812;SDS011;34221;45.296;9.516;2022-09-12T00:04:44;23.40;;;14.88;;
47812;SDS011;34221;45.296;9.516;2022-09-12T00:04:59;22.95;;;14.95;;
47812;SDS011;34221;45.296;9.516;2022-09-12T00:05:14;17.70;;;14.23;;
47812;SDS011;34221;45.296;9.516;2022-09-12T00:05:29;16.27;;;13.70;;
47812;SDS011;34221;45.296;9.516;2022-09-12T00:05:46;15.88;;;13.50;;
47812;SDS011;34221;45.296;9.516;2022-09-12T00:06:05;16.00;;;13.68;;
47812;SDS011;34221;45.296;9.516;2022-09-12T00:06:27;19.83;;;14.05;;
47812;SDS011;34221;45.296;9.516;2022-09-12T00:06:46;18.27;;;14.65;;
47812;SDS011;34221;45.296;9.516;2022-09-12T00:07:01;21.42;;;14.95;;
47812;SDS011;34221;45.296;9.516;2022-09-12T00:07:16;23.13;;;14.82;;
47812;SDS011;34221;45.296;9.516;2022-09-12T00:07:31;20.50;;;14.88;;
47812;SDS011;34221;45.296;9.516;2022-09-12T00:07:47;18.55;;;14.68;;
47812;SDS011;34221;45.296;9.516;2022-09-12T00:08:02;17.60;;;14.20;;
47812;SDS011;34221;45.296;9.516;2022-09-12T00:08:18;18.77;;;14.50;;
47812;SDS011;34221;45.296;9.516;2022-09-12T00:08:32;20.05;;;15.02;;
47812;SDS011;34221;45.296;9.516;2022-09-12T00:08:47;19.98;;;15.05;;
47812;SDS011;34221;45.296;9.516;2022-09-12T00:09:05;19.60;;;15.05;;
47812;SDS011;34221;45.296;9.516;2022-09-12T00:09:24;19.45;;;14.02;;
47812;SDS011;34221;45.296;9.516;2022-09-12T00:09:39;17.58;;;13.80;;
47812;SDS011;34221;45.296;9.516;2022-09-12T00:09:54;18.17;;;13.93;;
47812;SDS011;34221;45.296;9.516;2022-09-12T00:10:09;18.75;;;13.80;;
47812;SDS011;34221;45.296;9.516;2022-09-12T00:10:25;19.48;;;14.32;;
47812;SDS011;34221;45.296;9.516;2022-09-12T00:10:40;18.70;;;14.70;;
47812;SDS011;34221;45.296;9.516;2022-09-12T00:10:57;18.15;;;14.43;;
47812;SDS011;34221;45.296;9.516;2022-09-12T00:11:12;18.52;;;14.70;;
47812;SDS011;34221;45.296;9.516;2022-09-12T00:11:27;17.48;;;14.43;;
47812;SDS011;34221;45.296;9.516;2022-09-12T00:11:44;18.65;;;14.57;;
47812;SDS011;34221;45.296;9.516;2022-09-12T00:12:00;21.17;;;14.93;;
47812;SDS011;34221;45.296;9.516;2022-09-12T00:12:15;21.00;;;15.25;;
47812;SDS011;34221;45.296;9.516;2022-09-12T00:12:30;18.67;;;15.30;;
47812;SDS011;34221;45.296;9.516;2022-09-12T00:12:45;23.27;;;15.05;;
47812;SDS011;34221;45.296;9.516;2022-09-12T00:13:00;23.50;;;14.82;;
47812;SDS011;34221;45.296;9.516;2022-09-12T00:13:15;19.00;;;14.85;;
47812;SDS011;34221;45.296;9.516;2022-09-12T00:13:30;19.77;;;14.95;;
47812;SDS011;34221;45.296;9.516;2022-09-12T00:13:45;20.60;;;15.35;;
47812;SDS011;34221;45.296;9.516;2022-09-12T00:14:00;19.67;;;15.40;;
47812;SDS011;34221;45.296;9.516;2022-09-12T00:14:16;18.95;;;14.77;;
47812;SDS011;34221;45.296;9.516;2022-09-12T00:14:32;19.60;;;15.63;;
47812;SDS011;34221;45.296;9.516;2022-09-12T00:14:47;20.08;;;15.73;;
47812;SDS011;34221;45.296;9.516;2022-09-12T00:15:03;19.30;;;14.55;;
47812;SDS011;34221;45.296;9.516;2022-09-12T00:15:19;18.73;;;14.95;;
47812;SDS011;34221;45.296;9.516;2022-09-12T00:15:41;20.02;;;15.70;;
47812;SDS011;34221;45.296;9.516;2022-09-12T00:15:58;19.98;;;15.38;;
47812;SDS011;34221;45.296;9.516;2022-09-12T00:16:14;20.48;;;14.40;;
47812;SDS011;34221;45.296;9.516;2022-09-12T00:16:31;19.20;;;14.55;;
47812;SDS011;34221;45.296;9.516;2022-09-12T00:16:49;19.30;;;15.13;;
47812;SDS011;34221;45.296;9.516;2022-09-12T00:17:04;17.67;;;14.40;;
47812;SDS011;34221;45.296;9.516;2022-09-12T00:17:19;18.83;;;14.63;;
47812;SDS011;34221;45.296;9.516;2022-09-12T00:17:34;21.40;;;15.65;;
47812;SDS011;34221;45.296;9.516;2022-09-12T00:17:50;20.83;;;15.40;;
47812;SDS011;34221;45.296;9.516;2022-09-12T00:18:06;19.17;;;14.95;;
47812;SDS011;34221;45.296;9.516;2022-09-12T00:18:23;17.83;;;14.95;;
47812;SDS011;34221;45.296;9.516;2022-09-12T00:18:38;17.60;;;14.88;;
47812;SDS011;34221;45.296;9.516;2022-09-12T00:18:53;19.33;;;15.23;;
47812;SDS011;34221;45.296;9.516;2022-09-12T00:19:08;21.40;;;15.60;;
47812;SDS011;34221;45.296;9.516;2022-09-12T00:19:24;20.20;;;15.40;;
47812;SDS011;34221;45.296;9.516;2022-09-12T00:19:40;18.10;;;15.07;;
47812;SDS011;34221;45.296;9.516;2022-09-12T00:19:55;18.23;;;15.10;;
47812;SDS011;34221;45.296;9.516;2022-09-12T00:20:10;18.92;;;14.77;;
47812;SDS011;34221;45.296;9.516;2022-09-12T00:20:25;17.58;;;14.50;;
47812;SDS011;34221;45.296;9.516;2022-09-12T00:20:41;17.17;;;14.40;;
47812;SDS011;34221;45.296;9.516;2022-09-12T00:21:01;21.02;;;14.85;;
47812;SDS011;34221;45.296;9.516;2022-09-12T00:21:18;19.98;;;14.82;;
47812;SDS011;34221;45.296;9.516;2022-09-12T00:21:34;20.40;;;15.25;;
47812;SDS011;34221;45.296;9.516;2022-09-12T00:21:51;20.00;;;15.20;;
47812;SDS011;34221;45.296;9.516;2022-09-12T00:22:07;20.33;;;15.25;;
47812;SDS011;34221;45.296;9.516;2022-09-12T00:22:22;19.40;;;15.13;;
47812;SDS011;34221;45.296;9.516;2022-09-12T00:22:37;18.85;;;14.77;;
47812;SDS011;34221;45.296;9.516;2022-09-12T00:22:52;23.73;;;15.65;;
47812;SDS011;34221;45.296;9.516;2022-09-12T00:23:07;27.50;;;16.08;;
47812;SDS011;34221;45.296;9.516;2022-09-12T00:23:22;25.45;;;15.50;;
47812;SDS011;34221;45.296;9.516;2022-09-12T00:23:37;22.00;;;15.05;;
47812;SDS011;34221;45.296;9.516;2022-09-12T00:23:52;20.55;;;14.90;;
47812;SDS011;34221;45.296;9.516;2022-09-12T00:24:08;19.48;;;15.00;;
47812;SDS011;34221;45.296;9.516;2022-09-12T00:24:24;20.73;;;15.13;;
47812;SDS011;34221;45.296;9.516;2022-09-12T00:24:39;21.33;;;15.40;;
47812;SDS011;34221;45.296;9.516;2022-09-12T00:24:54;19.50;;;15.43;;
47812;SDS011;34221;45.296;9.516;2022-09-12T00:25:28;22.75;;;14.70;;
47812;SDS011;34221;45.296;9.516;2022-09-12T00:25:45;18.98;;;14.13;;
47812;SDS011;34221;45.296;9.516;2022-09-12T00:26:03;19.88;;;14.38;;
47812;SDS011;34221;45.296;9.516;2022-09-12T00:26:20;19.35;;;15.63;;
47812;SDS011;34221;45.296;9.516;2022-09-12T00:26:35;19.83;;;15.85;;
47812;SDS011;34221;45.296;9.516;2022-09-12T00:26:50;19.60;;;15.60;;
47812;SDS011;34221;45.296;9.516;2022-09-12T00:27:05;17.92;;;15.00;;
47812;SDS011;34221;45.296;9.516;2022-09-12T00:27:20;18.23;;;14.77;;
47812;SDS011;34221;45.296;9.516;2022-09-12T00:27:35;20.40;;;15.35;;
47812;SDS011;34221;45.296;9.516;2022-09-12T00:27:50;20.25;;;15.45;;
47812;SDS011;34221;45.296;9.516;2022-09-12T00:28:05;18.45;;;15.70;;
47812;SDS011;34221;45.296;9.516;2022-09-12T00:28:20;19.42;;;15.68;;
47812;SDS011;34221;45.296;9.516;2022-09-12T00:28:35;19.50;;;15.20;;
47812;SDS011;34221;45.296;9.516;2022-09-12T00:28:52;18.20;;;15.23;;
47812;SDS011;34221;45.296;9.516;2022-09-12T00:29:07;18.98;;;15.45;;
47812;SDS011;34221;45.296;9.516;2022-09-12T00:29:29;21.05;;;15.75;;
47812;SDS011;34221;45.296;9.516;2022-09-12T00:29:44;21.17;;;15.90;;
47812;SDS011;34221;45.296;9.516;2022-09-12T00:29:59;20.90;;;15.93;;
47812;SDS011;34221;45.296;9.516;2022-09-12T00:30:14;19.52;;;15.60;;
47812;SDS011;34221;45.296;9.516;2022-09-12T00:30:29;18.88;;;15.77;;
47812;SDS011;34221;45.296;9.516;2022-09-12T00:30:47;18.92;;;15.88;;
47812;SDS011;34221;45.296;9.516;2022-09-12T00:31:04;18.65;;;15.20;;
47812;SDS011;34221;45.296;9.516;2022-09-12T00:31:22;19.75;;;15.50;;
47812;SDS011;34221;45.296;9.516;2022-09-12T00:31:39;19.80;;;15.90;;
47812;SDS011;34221;45.296;9.516;2022-09-12T00:31:54;21.08;;;15.40;;
47812;SDS011;34221;45.296;9.516;2022-09-12T00:32:09;22.65;;;15.60;;
47812;SDS011;34221;45.296;9.516;2022-09-12T00:32:24;20.67;;;15.18;;
47812;SDS011;34221;45.296;9.516;2022-09-12T00:32:39;18.55;;;15.00;;
47812;SDS011;34221;45.296;9.516;2022-09-12T00:32:54;18.63;;;15.70;;
47812;SDS011;34221;45.296;9.516;2022-09-12T00:33:09;19.55;;;15.70;;
47812;SDS011;34221;45.296;9.516;2022-09-12T00:33:25;19.05;;;15.77;;
47812;SDS011;34221;45.296;9.516;2022-09-12T00:33:40;18.75;;;15.93;;
47812;SDS011;34221;45.296;9.516;2022-09-12T00:33:57;17.77;;;15.48;;
47812;SDS011;34221;45.296;9.516;2022-09-12T00:34:14;17.02;;;15.15;;
47812;SDS011;34221;45.296;9.516;2022-09-12T00:34:28;17.80;;;15.30;;
47812;SDS011;34221;45.296;9.516;2022-09-12T00:34:43;21.40;;;15.57;;
47812;SDS011;34221;45.296;9.516;2022-09-12T00:34:58;23.50;;;16.67;;
47812;SDS011;34221;45.296;9.516;2022-09-12T00:35:16;19.33;;;15.88;;
47812;SDS011;34221;45.296;9.516;2022-09-12T00:35:31;20.48;;;15.48;;
47812;SDS011;34221;45.296;9.516;2022-09-12T00:35:46;26.45;;;16.52;;
47812;SDS011;34221;45.296;9.516;2022-09-12T00:36:07;22.60;;;15.75;;
47812;SDS011;34221;45.296;9.516;2022-09-12T00:36:25;19.20;;;15.27;;
47812;SDS011;34221;45.296;9.516;2022-09-12T00:36:41;19.55;;;14.88;;
47812;SDS011;34221;45.296;9.516;2022-09-12T00:36:56;19.30;;;15.20;;
47812;SDS011;34221;45.296;9.516;2022-09-12T00:37:10;18.98;;;15.05;;
47812;SDS011;34221;45.296;9.516;2022-09-12T00:37:26;19.40;;;15.05;;
47812;SDS011;34221;45.296;9.516;2022-09-12T00:37:41;20.45;;;15.88;;
47812;SDS011;34221;45.296;9.516;2022-09-12T00:37:55;19.45;;;16.13;;
47812;SDS011;34221;45.296;9.516;2022-09-12T00:38:11;17.85;;;15.18;;
47812;SDS011;34221;45.296;9.516;2022-09-12T00:38:28;18.65;;;15.00;;
47812;SDS011;34221;45.296;9.516;2022-09-12T00:38:43;20.13;;;15.35;;
47812;SDS011;34221;45.296;9.516;2022-09-12T00:38:59;19.05;;;15.45;;
47812;SDS011;34221;45.296;9.516;2022-09-12T00:39:14;17.30;;;15.48;;
47812;SDS011;34221;45.296;9.516;2022-09-12T00:39:30;19.77;;;15.73;;
47812;SDS011;34221;45.296;9.516;2022-09-12T00:40:06;22.80;;;15.95;;
47812;SDS011;34221;45.296;9.516;2022-09-12T00:40:21;18.77;;;15.57;;
47812;SDS011;34221;45.296;9.516;2022-09-12T00:40:36;19.25;;;15.20;;
47812;SDS011;34221;45.296;9.516;2022-09-12T00:40:51;19.45;;;15.02;;
47812;SDS011;34221;45.296;9.516;2022-09-12T00:41:08;19.98;;;14.70;;
47812;SDS011;34221;45.296;9.516;2022-09-12T00:41:32;21.45;;;16.02;;
47812;SDS011;34221;45.296;9.516;2022-09-12T00:41:52;18.75;;;15.88;;
47812;SDS011;34221;45.296;9.516;2022-09-12T00:42:08;18.70;;;15.50;;
47812;SDS011;34221;45.296;9.516;2022-09-12T00:42:25;20.48;;;15.20;;
47812;SDS011;34221;45.296;9.516;2022-09-12T00:42:39;20.25;;;15.38;;
47812;SDS011;34221;45.296;9.516;2022-09-12T00:42:54;19.00;;;15.55;;
47812;SDS011;34221;45.296;9.516;2022-09-12T00:43:13;18.52;;;15.77;;
47812;SDS011;34221;45.296;9.516;2022-09-12T00:43:49;20.98;;;16.23;;
47812;SDS011;34221;45.296;9.516;2022-09-12T00:44:42;22.67;;;17.00;;
47812;SDS011;34221;45.296;9.516;2022-09-12T00:45:01;19.17;;;16.20;;
47812;SDS011;34221;45.296;9.516;2022-09-12T00:45:19;19.13;;;15.90;;
47812;SDS011;34221;45.296;9.516;2022-09-12T00:45:41;22.27;;;16.08;;
47812;SDS011;34221;45.296;9.516;2022-09-12T00:45:57;24.95;;;16.45;;
47812;SDS011;34221;45.296;9.516;2022-09-12T00:46:52;21.83;;;16.80;;
47812;SDS011;34221;45.296;9.516;2022-09-12T00:47:15;20.20;;;16.10;;
47812;SDS011;34221;45.296;9.516;2022-09-12T00:47:37;21.45;;;17.05;;
47812;SDS011;34221;45.296;9.516;2022-09-12T00:47:53;22.75;;;17.20;;
47812;SDS011;34221;45.296;9.516;2022-09-12T00:48:15;22.33;;;17.08;;
47812;SDS011;34221;45.296;9.516;2022-09-12T00:48:40;21.13;;;15.48;;
47812;SDS011;34221;45.296;9.516;2022-09-12T00:49:14;21.67;;;15.15;;
47812;SDS011;34221;45.296;9.516;2022-09-12T00:49:45;21.17;;;16.02;;
47812;SDS011;34221;45.296;9.516;2022-09-12T00:50:07;23.67;;;16.33;;
47812;SDS011;34221;45.296;9.516;2022-09-12T00:50:26;20.50;;;16.20;;
47812;SDS011;34221;45.296;9.516;2022-09-12T00:50:41;20.52;;;17.00;;
47812;SDS011;34221;45.296;9.516;2022-09-12T00:50:57;23.60;;;17.30;;
47812;SDS011;34221;45.296;9.516;2022-09-12T00:51:12;24.02;;;16.50;;
47812;SDS011;34221;45.296;9.516;2022-09-12T00:51:27;21.88;;;16.58;;
47812;SDS011;34221;45.296;9.516;2022-09-12T00:52:05;19.75;;;16.08;;
47812;SDS011;34221;45.296;9.516;2022-09-12T00:52:43;19.85;;;16.58;;
47812;SDS011;34221;45.296;9.516;2022-09-12T00:53:05;21.02;;;16.77;;
47812;SDS011;34221;45.296;9.516;2022-09-12T00:53:22;19.25;;;16.55;;
47812;SDS011;34221;45.296;9.516;2022-09-12T00:53:38;18.67;;;16.30;;
47812;SDS011;34221;45.296;9.516;2022-09-12T00:53:55;20.15;;;16.00;;
47812;SDS011;34221;45.296;9.516;2022-09-12T00:54:13;19.85;;;16.20;;
47812;SDS011;34221;45.296;9.516;2022-09-12T00:55:13;18.25;;;15.40;;
47812;SDS011;34221;45.296;9.516;2022-09-12T00:55:35;21.58;;;17.05;;
47812;SDS011;34221;45.296;9.516;2022-09-12T00:55:57;21.17;;;17.27;;
47812;SDS011;34221;45.296;9.516;2022-09-12T00:56:12;19.48;;;16.08;;
47812;SDS011;34221;45.296;9.516;2022-09-12T00:56:31;20.00;;;16.30;;
47812;SDS011;34221;45.296;9.516;2022-09-12T00:56:48;19.95;;;16.42;;
47812;SDS011;34221;45.296;9.516;2022-09-12T00:57:08;22.85;;;16.60;;
47812;SDS011;34221;45.296;9.516;2022-09-12T00:57:29;22.45;;;16.92;;
47812;SDS011;34221;45.296;9.516;2022-09-12T00:57:55;20.35;;;15.82;;
47812;SDS011;34221;45.296;9.516;2022-09-12T00:58:27;21.58;;;17.27;;
47812;SDS011;34221;45.296;9.516;2022-09-12T00:58:53;20.13;;;17.35;;
47812;SDS011;34221;45.296;9.516;2022-09-12T00:59:23;20.65;;;16.45;;
47812;SDS011;34221;45.296;9.516;2022-09-12T00:59:44;18.57;;;16.03;;
47812;SDS011;34221;45.296;9.516;2022-09-12T01:00:11;20.13;;;15.87;;
47812;SDS011;34221;45.296;9.516;2022-09-12T01:00:30;21.25;;;16.50;;
47812;SDS011;34221;45.296;9.516;2022-09-12T01:00:45;22.63;;;17.13;;
47812;SDS011;34221;45.296;9.516;2022-09-12T01:01:00;21.75;;;17.13;;
47812;SDS011;34221;45.296;9.516;2022-09-12T01:01:16;20.77;;;16.83;;
47812;SDS011;34221;45.296;9.516;2022-09-12T01:01:32;21.23;;;16.95;;
47812;SDS011;34221;45.296;9.516;2022-09-12T01:01:48;20.08;;;16.45;;
47812;SDS011;34221;45.296;9.516;2022-09-12T01:02:05;19.30;;;15.90;;
47812;SDS011;34221;45.296;9.516;2022-09-12T01:02:20;21.23;;;16.83;;
47812;SDS011;34221;45.296;9.516;2022-09-12T01:02:36;21.65;;;17.17;;
47812;SDS011;34221;45.296;9.516;2022-09-12T01:02:56;21.35;;;16.98;;
47812;SDS011;34221;45.296;9.516;2022-09-12T01:03:16;23.42;;;16.73;;
47812;SDS011;34221;45.296;9.516;2022-09-12T01:03:50;20.40;;;17.38;;
47812;SDS011;34221;45.296;9.516;2022-09-12T01:04:06;20.25;;;17.05;;
47812;SDS011;34221;45.296;9.516;2022-09-12T01:04:23;21.30;;;16.60;;
47812;SDS011;34221;45.296;9.516;2022-09-12T01:04:40;20.92;;;16.92;;
47812;SDS011;34221;45.296;9.516;2022-09-12T01:04:57;20.77;;;16.80;;
47812;SDS011;34221;45.296;9.516;2022-09-12T01:05:13;23.83;;;17.42;;
47812;SDS011;34221;45.296;9.516;2022-09-12T01:05:30;21.88;;;17.40;;
47812;SDS011;34221;45.296;9.516;2022-09-12T01:06:00;20.58;;;17.40;;
47812;SDS011;34221;45.296;9.516;2022-09-12T01:06:25;21.55;;;16.60;;
47812;SDS011;34221;45.296;9.516;2022-09-12T01:06:45;24.27;;;17.48;;
47812;SDS011;34221;45.296;9.516;2022-09-12T01:07:02;21.50;;;16.77;;
47812;SDS011;34221;45.296;9.516;2022-09-12T01:07:19;25.50;;;17.40;;
47812;SDS011;34221;45.296;9.516;2022-09-12T01:07:37;26.25;;;17.10;;
47812;SDS011;34221;45.296;9.516;2022-09-12T01:07:53;21.27;;;16.38;;
47812;SDS011;34221;45.296;9.516;2022-09-12T01:08:10;20.30;;;16.90;;
47812;SDS011;34221;45.296;9.516;2022-09-12T01:08:26;20.95;;;16.75;;
47812;SDS011;34221;45.296;9.516;2022-09-12T01:08:42;21.33;;;17.08;;
47812;SDS011;34221;45.296;9.516;2022-09-12T01:09:00;20.65;;;17.33;;
47812;SDS011;34221;45.296;9.516;2022-09-12T01:09:18;22.20;;;17.40;;
47812;SDS011;34221;45.296;9.516;2022-09-12T01:09:37;24.02;;;17.45;;
47812;SDS011;34221;45.296;9.516;2022-09-12T01:09:53;20.20;;;16.38;;
47812;SDS011;34221;45.296;9.516;2022-09-12T01:10:09;19.60;;;16.65;;
47812;SDS011;34221;45.296;9.516;2022-09-12T01:10:24;20.17;;;17.27;;
47812;SDS011;34221;45.296;9.516;2022-09-12T01:10:39;19.87;;;16.60;;
47812;SDS011;34221;45.296;9.516;2022-09-12T01:10:55;20.70;;;17.08;;
47812;SDS011;34221;45.296;9.516;2022-09-12T01:11:11;21.73;;;17.98;;
47812;SDS011;34221;45.296;9.516;2022-09-12T01:11:27;21.48;;;17.35;;
47812;SDS011;34221;45.296;9.516;2022-09-12T01:11:46;21.45;;;16.35;;
47812;SDS011;34221;45.296;9.516;2022-09-12T01:12:03;21.08;;;16.63;;
47812;SDS011;34221;45.296;9.516;2022-09-12T01:12:19;21.10;;;17.17;;
47812;SDS011;34221;45.296;9.516;2022-09-12T01:12:34;21.35;;;17.30;;
47812;SDS011;34221;45.296;9.516;2022-09-12T01:12:54;21.33;;;17.13;;
47812;SDS011;34221;45.296;9.516;2022-09-12T01:13:09;20.45;;;17.08;;
47812;SDS011;34221;45.296;9.516;2022-09-12T01:13:24;20.98;;;17.63;;
47812;SDS011;34221;45.296;9.516;2022-09-12T01:13:40;22.42;;;18.20;;
47812;SDS011;34221;45.296;9.516;2022-09-12T01:13:57;23.85;;;17.80;;
47812;SDS011;34221;45.296;9.516;2022-09-12T01:14:13;26.70;;;17.48;;
47812;SDS011;34221;45.296;9.516;2022-09-12T01:14:30;23.77;;;17.27;;
47812;SDS011;34221;45.296;9.516;2022-09-12T01:14:46;21.40;;;16.67;;
47812;SDS011;34221;45.296;9.516;2022-09-12T01:15:01;20.63;;;16.65;;
47812;SDS011;34221;45.296;9.516;2022-09-12T01:15:16;21.33;;;16.83;;
47812;SDS011;34221;45.296;9.516;2022-09-12T01:15:31;21.67;;;16.73;;
47812;SDS011;34221;45.296;9.516;2022-09-12T01:15:46;20.27;;;17.08;;
47812;SDS011;34221;45.296;9.516;2022-09-12T01:16:02;20.50;;;17.10;;
47812;SDS011;34221;45.296;9.516;2022-09-12T01:16:19;22.00;;;16.73;;
47812;SDS011;34221;45.296;9.516;2022-09-12T01:16:34;21.55;;;17.25;;
47812;SDS011;34221;45.296;9.516;2022-09-12T01:16:51;21.05;;;17.02;;
47812;SDS011;34221;45.296;9.516;2022-09-12T01:17:06;21.98;;;16.38;;
47812;SDS011;34221;45.296;9.516;2022-09-12T01:17:30;20.38;;;16.30;;
47812;SDS011;34221;45.296;9.516;2022-09-12T01:18:57;20.83;;;16.55;;
47812;SDS011;34221;45.296;9.516;2022-09-12T01:25:13;22.80;;;18.08;;
47812;SDS011;34221;45.296;9.516;2022-09-12T01:27:47;20.50;;;17.13;;
47812;SDS011;34221;45.296;9.516;2022-09-12T01:30:54;20.52;;;16.58;;
47812;SDS011;34221;45.296;9.516;2022-09-12T01:31:23;20.23;;;17.00;;
47812;SDS011;34221;45.296;9.516;2022-09-12T01:32:37;20.30;;;16.75;;
47812;SDS011;34221;45.296;9.516;2022-09-12T01:34:53;20.30;;;16.92;;
47812;SDS011;34221;45.296;9.516;2022-09-12T01:36:50;19.63;;;16.08;;
47812;SDS011;34221;45.296;9.516;2022-09-12T01:37:50;20.83;;;16.55;;
47812;SDS011;34221;45.296;9.516;2022-09-12T01:38:33;19.38;;;16.63;;
47812;SDS011;34221;45.296;9.516;2022-09-12T01:38:57;21.20;;;16.38;;
47812;SDS011;34221;45.296;9.516;2022-09-12T01:40:21;23.63;;;16.13;;
47812;SDS011;34221;45.296;9.516;2022-09-12T01:41:01;22.50;;;16.70;;
47812;SDS011;34221;45.296;9.516;2022-09-12T01:42:31;19.92;;;16.42;;
47812;SDS011;34221;45.296;9.516;2022-09-12T01:42:42;19.77;;;15.98;;
47812;SDS011;34221;45.296;9.516;2022-09-12T01:43:17;23.63;;;17.42;;
47812;SDS011;34221;45.296;9.516;2022-09-12T01:43:53;22.10;;;16.95;;
47812;SDS011;34221;45.296;9.516;2022-09-12T01:45:25;20.02;;;16.80;;
47812;SDS011;34221;45.296;9.516;2022-09-12T01:46:23;24.15;;;16.45;;
47812;SDS011;34221;45.296;9.516;2022-09-12T01:47:09;21.60;;;16.55;;
47812;SDS011;34221;45.296;9.516;2022-09-12T01:47:40;20.48;;;15.88;;
47812;SDS011;34221;45.296;9.516;2022-09-12T01:48:37;22.10;;;16.75;;
47812;SDS011;34221;45.296;9.516;2022-09-12T01:50:00;21.00;;;15.65;;
47812;SDS011;34221;45.296;9.516;2022-09-12T01:50:22;22.35;;;15.68;;
47812;SDS011;34221;45.296;9.516;2022-09-12T01:50:49;18.67;;;15.10;;
47812;SDS011;34221;45.296;9.516;2022-09-12T01:51:59;21.02;;;15.23;;
47812;SDS011;34221;45.296;9.516;2022-09-12T01:52:55;19.27;;;15.35;;
47812;SDS011;34221;45.296;9.516;2022-09-12T01:53:22;18.50;;;15.18;;
47812;SDS011;34221;45.296;9.516;2022-09-12T01:54:00;19.80;;;15.57;;
47812;SDS011;34221;45.296;9.516;2022-09-12T01:54:28;22.60;;;15.80;;
47812;SDS011;34221;45.296;9.516;2022-09-12T01:55:17;19.75;;;15.20;;
47812;SDS011;34221;45.296;9.516;2022-09-12T01:55:59;21.67;;;16.05;;
47812;SDS011;34221;45.296;9.516;2022-09-12T01:56:26;20.50;;;16.15;;
47812;SDS011;34221;45.296;9.516;2022-09-12T01:56:43;17.50;;;15.25;;
47812;SDS011;34221;45.296;9.516;2022-09-12T01:57:03;20.00;;;15.25;;
47812;SDS011;34221;45.296;9.516;2022-09-12T01:57:29;19.55;;;15.75;;
47812;SDS011;34221;45.296;9.516;2022-09-12T01:57:55;17.27;;;15.25;;
47812;SDS011;34221;45.296;9.516;2022-09-12T01:58:21;19.13;;;15.05;;
47812;SDS011;34221;45.296;9.516;2022-09-12T01:58:46;19.25;;;15.50;;
47812;SDS011;34221;45.296;9.516;2022-09-12T01:59:28;21.20;;;15.37;;
47812;SDS011;34221;45.296;9.516;2022-09-12T01:59:53;19.83;;;15.10;;
47812;SDS011;34221;45.296;9.516;2022-09-12T02:00:12;19.60;;;15.20;;
47812;SDS011;34221;45.296;9.516;2022-09-12T02:00:28;21.67;;;16.05;;
47812;SDS011;34221;45.296;9.516;2022-09-12T02:00:48;23.25;;;16.60;;
47812;SDS011;34221;45.296;9.516;2022-09-12T02:01:27;19.95;;;16.05;;
47812;SDS011;34221;45.296;9.516;2022-09-12T02:02:02;24.55;;;15.98;;
47812;SDS011;34221;45.296;9.516;2022-09-12T02:03:17;20.52;;;15.30;;
47812;SDS011;34221;45.296;9.516;2022-09-12T02:03:45;21.50;;;15.50;;
47812;SDS011;34221;45.296;9.516;2022-09-12T02:04:17;17.75;;;14.55;;
47812;SDS011;34221;45.296;9.516;2022-09-12T02:05:52;20.25;;;15.52;;
47812;SDS011;34221;45.296;9.516;2022-09-12T02:06:16;18.50;;;14.80;;
47812;SDS011;34221;45.296;9.516;2022-09-12T02:06:42;16.42;;;14.52;;
47812;SDS011;34221;45.296;9.516;2022-09-12T02:07:17;21.65;;;16.40;;
47812;SDS011;34221;45.296;9.516;2022-09-12T02:08:00;19.08;;;15.20;;
47812;SDS011;34221;45.296;9.516;2022-09-12T02:08:39;19.02;;;15.60;;
47812;SDS011;34221;45.296;9.516;2022-09-12T02:09:04;19.30;;;15.15;;
47812;SDS011;34221;45.296;9.516;2022-09-12T02:10:41;19.92;;;15.63;;
47812;SDS011;34221;45.296;9.516;2022-09-12T02:11:08;19.98;;;15.90;;
47812;SDS011;34221;45.296;9.516;2022-09-12T02:11:25;20.25;;;15.55;;
47812;SDS011;34221;45.296;9.516;2022-09-12T02:11:40;21.17;;;15.33;;
47812;SDS011;34221;45.296;9.516;2022-09-12T02:11:59;18.60;;;15.32;;
47812;SDS011;34221;45.296;9.516;2022-09-12T02:12:37;18.63;;;15.35;;
47812;SDS011;34221;45.296;9.516;2022-09-12T02:13:01;19.10;;;15.50;;
47812;SDS011;34221;45.296;9.516;2022-09-12T02:13:29;18.23;;;15.95;;
47812;SDS011;34221;45.296;9.516;2022-09-12T02:13:48;18.38;;;15.18;;
47812;SDS011;34221;45.296;9.516;2022-09-12T02:14:13;23.42;;;15.70;;
47812;SDS011;34221;45.296;9.516;2022-09-12T02:14:39;19.60;;;15.23;;
47812;SDS011;34221;45.296;9.516;2022-09-12T02:15:02;19.73;;;15.30;;
47812;SDS011;34221;45.296;9.516;2022-09-12T02:15:22;18.33;;;15.18;;
47812;SDS011;34221;45.296;9.516;2022-09-12T02:15:48;21.80;;;15.68;;
47812;SDS011;34221;45.296;9.516;2022-09-12T02:16:17;21.02;;;15.63;;
47812;SDS011;34221;45.296;9.516;2022-09-12T02:16:44;20.33;;;15.80;;
47812;SDS011;34221;45.296;9.516;2022-09-12T02:17:05;19.33;;;15.50;;
47812;SDS011;34221;45.296;9.516;2022-09-12T02:17:41;20.48;;;16.52;;
47812;SDS011;34221;45.296;9.516;2022-09-12T02:17:57;21.13;;;16.15;;
47812;SDS011;34221;45.296;9.516;2022-09-12T02:18:15;19.00;;;15.57;;
47812;SDS011;34221;45.296;9.516;2022-09-12T02:18:34;17.40;;;15.27;;
47812;SDS011;34221;45.296;9.516;2022-09-12T02:19:06;19.33;;;15.73;;
47812;SDS011;34221;45.296;9.516;2022-09-12T02:19:36;20.05;;;15.20;;
47812;SDS011;34221;45.296;9.516;2022-09-12T02:20:22;19.42;;;15.40;;
47812;SDS011;34221;45.296;9.516;2022-09-12T02:20:43;18.27;;;15.10;;
47812;SDS011;34221;45.296;9.516;2022-09-12T02:21:00;18.25;;;15.05;;
47812;SDS011;34221;45.296;9.516;2022-09-12T02:21:19;17.63;;;15.15;;
47812;SDS011;34221;45.296;9.516;2022-09-12T02:21:38;18.92;;;15.13;;
47812;SDS011;34221;45.296;9.516;2022-09-12T02:21:58;21.60;;;15.90;;
47812;SDS011;34221;45.296;9.516;2022-09-12T02:22:16;20.23;;;16.10;;
47812;SDS011;34221;45.296;9.516;2022-09-12T02:22:35;18.95;;;15.65;;
47812;SDS011;34221;45.296;9.516;2022-09-12T02:22:51;21.83;;;15.80;;
47812;SDS011;34221;45.296;9.516;2022-09-12T02:23:11;20.80;;;15.80;;
47812;SDS011;34221;45.296;9.516;2022-09-12T02:23:33;21.75;;;16.20;;
47812;SDS011;34221;45.296;9.516;2022-09-12T02:23:56;23.08;;;15.48;;
47812;SDS011;34221;45.296;9.516;2022-09-12T02:24:13;20.35;;;15.02;;
47812;SDS011;34221;45.296;9.516;2022-09-12T02:24:30;22.30;;;15.18;;
47812;SDS011;34221;45.296;9.516;2022-09-12T02:24:55;21.60;;;15.10;;